Terminal Aerodrome Forecast
Issued by NWS

Home | Current Version | Previous Version | Graphics & Text | Print | Product List | Glossary On
Versions: 1 2 3 4 5 6 7 8 9 10 11 12 13 14 15 16 17
278
FTUS43 KICT 161122
TAFSLN
TAF
KSLN 161122Z 1612/1712 16009KT 6SM -SHRA VCTS SCT008CB BKN035
      TEMPO 1612/1614 VRB25G40KT 2SM TSRA BR BKN008CB
     FM161400 17008KT P6SM VCTS BKN015CB OVC060
     FM161700 18010KT P6SM SCT050 SCT150
     FM162000 26009KT P6SM VCTS BKN050CB
     FM162300 30012KT P6SM VCTS BKN080CB
     FM170600 29008KT P6SM SCT200=

USA.gov is the U.S. government's official web portal to all federal, state and local government web resources and services.